Latest Weather Observations for Coffs Harbour

IDN60801

Issued at 7:35 pm EDT Friday 31 October 2014 (issued every 30 minutes, with the page automatically refreshed every 10 minutes)

About weather observations | Map of weather stations | Latest weather observations for NSW | Other Formats
Station Details ID: 059040 Name: COFFS HARBOUR MO Lat: -30.31 Lon: 153.12 Height: 5.0 m
Data from the previous 72 hours. | See also: Recent months at Coffs Harbour
Date/Time
EDT
Temp
°C
App
Temp
°C
Dew
Point
Rel
Hum
%
Delta-T
°C
Wind Press
QNH
hPa
Press
MSL
hPa
Rain
since 9 am
mm
Dir
 
Spd
km/h
Gust
km/h
Spd
kts
Gust
kts
31/07:30pm 23.2 20.7 18.9 77 2.7 NNE 30 39 16 21 1011.4 - 0.0
31/07:00pm 23.4 20.4 19.0 76 2.8 N 33 46 18 25 1011.2 - 0.0
31/06:37pm 23.5 20.8 19.3 77 2.7 NNE 32 50 17 27 1011.0 - 0.0
31/06:30pm 23.5 19.9 19.4 78 2.6 NNE 37 52 20 28 1010.9 - 0.0
31/06:00pm 24.2 21.0 19.4 74 3.1 NNE 35 48 19 26 1010.6 1010.7 0.0
31/05:30pm 24.5 20.5 19.4 73 3.3 NNE 39 52 21 28 1010.3 - 0.0
31/05:00pm 24.8 20.0 19.2 71 3.6 NNE 43 52 23 28 1010.3 - 0.0
31/04:30pm 25.5 21.3 18.9 67 4.2 NNE 39 54 21 29 1010.2 - 0.0
31/04:00pm 25.3 19.8 18.9 67 4.1 NNE 46 61 25 33 1010.4 - 0.0
31/03:30pm 25.5 20.3 18.9 67 4.2 NNE 44 57 24 31 1010.7 - 0.0
31/03:00pm 25.5 20.5 18.8 66 4.3 NNE 43 57 23 31 1010.9 1011.0 0.0
31/02:30pm 26.1 21.8 18.6 63 4.8 NE 39 56 21 30 1011.4 - 0.0
31/02:00pm 25.8 20.7 18.6 64 4.6 NE 43 57 23 31 1012.0 - 0.0
31/01:53pm 25.3 20.5 18.5 66 4.3 NE 41 59 22 32 1012.1 - 0.0
31/01:30pm 25.6 20.5 18.5 65 4.5 NE 43 54 23 29 1012.5 - 0.0
31/01:00pm 26.3 21.7 18.1 60 5.2 NNE 39 54 21 29 1012.9 - 0.0
31/12:40pm 26.5 21.9 17.9 59 5.4 NNE 39 57 21 31 1013.1 - 0.0
31/12:30pm 26.3 21.5 17.5 58 5.5 NNE 39 54 21 29 1013.2 - 0.0
31/12:00pm 26.1 21.7 17.5 59 5.4 NNE 37 48 20 26 1013.7 1013.8 0.0
31/11:30am 26.5 22.4 18.3 60 5.2 NNE 37 46 20 25 1014.0 - 0.0
31/11:00am 26.7 23.3 18.2 59 5.4 NNE 33 41 18 22 1014.2 - 0.0
31/10:30am 29.1 26.7 15.4 43 8.4 NE 22 28 12 15 1014.5 - 0.0
31/10:00am 27.3 27.3 18.0 56 5.9 NE 15 19 8 10 1014.6 - 0.0
31/09:30am 26.1 26.2 17.5 59 5.4 ENE 13 19 7 10 1014.9 - 0.0
31/09:00am 25.7 25.5 16.6 57 5.6 NNE 13 17 7 9 1015.1 1015.2 0.0
31/08:30am 24.1 24.5 16.4 62 4.7 N 9 11 5 6 1014.9 - 0.0
31/08:00am 22.9 23.3 16.3 66 4.0 N 9 15 5 8 1015.1 - 0.0
31/07:30am 21.6 22.5 16.7 73 3.0 N 7 11 4 6 1015.0 - 0.0
31/07:00am 18.7 20.0 17.2 91 0.9 N 6 7 3 4 1014.9 - 0.0
31/06:30am 16.7 17.3 15.7 94 0.6 N 7 9 4 5 1014.8 - 0.0
31/06:00am 16.7 17.3 15.7 94 0.6 N 7 7 4 4 1014.4 1014.5 0.0
31/05:30am 16.6 17.1 15.6 94 0.6 NNE 7 7 4 4 1014.2 - 0.0
31/05:00am 17.2 17.9 16.0 93 0.7 N 7 11 4 6 1013.8 - 0.0
31/04:30am 17.5 19.5 16.1 91 0.8 CALM 0 0 0 0 1013.7 - 0.0
31/04:00am 18.1 18.9 16.4 90 1.0 N 7 9 4 5 1013.8 - 0.0
31/03:30am 19.5 19.8 16.9 85 1.6 N 11 13 6 7 1013.9 - 0.0
31/03:00am 20.1 19.3 17.0 82 1.9 NNE 17 22 9 12 1013.9 1014.0 0.0
31/02:30am 20.5 19.6 16.9 80 2.2 N 17 24 9 13 1014.2 - 0.0
31/02:00am 20.6 18.7 16.8 79 2.3 N 22 28 12 15 1014.7 - 0.0
31/01:30am 20.3 19.3 16.5 79 2.3 N 17 20 9 11 1015.1 - 0.0
31/01:00am 20.4 18.8 16.4 78 2.4 N 20 26 11 14 1015.4 - 0.0
31/12:30am 20.4 19.8 15.7 74 2.8 NNE 13 17 7 9 1015.6 - 0.0
31/12:00am 20.6 19.1 15.2 71 3.2 NNE 17 19 9 10 1015.6 1015.7 0.0
 
Date/Time
EDT
Temp
°C
App
Temp
°C
Dew
Point
Rel
Hum
%
Delta-T
°C
Wind Press
QNH
hPa
Press
MSL
hPa
Rain
since 9 am
mm
Dir
 
Spd
km/h
Gust
km/h
Spd
kts
Gust
kts
30/11:30pm 21.0 19.7 14.7 67 3.7 N 15 22 8 12 1015.6 - 0.0
30/11:00pm 20.5 18.5 14.9 70 3.3 N 19 22 10 12 1015.5 - 0.0
30/10:30pm 21.1 19.4 14.6 66 3.8 NNE 17 20 9 11 1015.5 - 0.0
30/10:00pm 21.4 19.7 14.6 65 4.0 N 17 22 9 12 1015.4 - 0.0
30/09:30pm 21.9 19.5 14.4 62 4.4 NNE 20 26 11 14 1015.4 - 0.0
30/09:00pm 22.1 18.2 14.4 61 4.5 NNE 28 35 15 19 1015.1 1015.2 0.0
30/08:30pm 22.2 20.0 14.3 61 4.6 NNE 19 28 10 15 1014.9 - 0.0
30/08:00pm 22.1 20.0 14.6 62 4.4 NNE 19 28 10 15 1014.4 - 0.0
30/07:30pm 22.0 20.1 15.7 67 3.8 NNE 20 30 11 16 1013.8 - 0.0
30/07:00pm 22.3 19.2 15.6 66 4.0 NNE 26 32 14 17 1013.2 - 0.0
30/06:30pm 22.7 19.3 15.7 64 4.2 NNE 28 35 15 19 1012.8 - 0.0
30/06:00pm 22.9 18.8 15.9 64 4.2 NNE 32 43 17 23 1012.6 1012.7 0.0
30/05:30pm 23.6 18.2 16.0 62 4.6 NNE 39 52 21 28 1012.4 - 0.0
30/05:00pm 23.9 18.1 16.0 61 4.8 NNE 41 59 22 32 1012.3 - 0.0
30/04:30pm 23.8 19.8 16.6 64 4.4 NNE 33 44 18 24 1012.4 - 0.0
30/04:00pm 24.1 18.8 16.4 62 4.7 NE 39 52 21 28 1012.5 - 0.0
30/03:30pm 23.9 18.4 16.7 64 4.4 NE 41 54 22 29 1012.5 - 0.0
30/03:00pm 24.1 19.1 16.2 61 4.8 NE 37 50 20 27 1012.7 1012.8 0.0
30/02:30pm 24.6 20.2 16.6 61 4.9 NE 35 50 19 27 1013.0 - 0.0
30/02:00pm 24.6 19.7 16.4 60 5.0 NE 37 52 20 28 1013.5 - 0.0
30/01:30pm 24.4 18.8 16.6 61 4.8 NE 41 54 22 29 1014.0 - 0.0
30/01:00pm 24.0 19.1 16.3 62 4.7 NE 37 48 20 26 1014.5 - 0.0
30/12:30pm 24.1 19.6 16.4 62 4.7 NE 35 44 19 24 1014.9 - 0.0
30/12:00pm 25.5 21.2 15.8 55 5.9 NNE 33 43 18 23 1015.3 1015.4 0.0
30/11:30am 27.0 22.6 12.8 41 8.3 N 28 35 15 19 1015.7 - 0.0
30/11:00am 26.5 22.6 13.4 44 7.7 N 26 35 14 19 1016.0 - 0.0
30/10:30am 25.4 21.9 13.4 47 7.0 N 24 32 13 17 1016.3 - 0.0
30/10:00am 25.2 21.6 13.2 47 7.0 N 24 32 13 17 1016.8 - 0.0
30/09:30am 24.3 20.8 13.3 50 6.4 N 24 30 13 16 1017.1 - 0.0
30/09:00am 23.5 20.9 13.9 55 5.6 N 20 26 11 14 1017.3 1017.4 0.0
30/08:30am 22.3 20.4 14.1 59 4.8 N 17 24 9 13 1017.3 - 0.0
30/08:00am 21.7 20.6 14.3 62 4.3 N 13 19 7 10 1017.3 - 0.0
30/07:30am 20.1 21.2 14.6 70 3.2 NNE 2 9 1 5 1017.2 - 0.0
30/07:00am 17.7 17.5 14.8 83 1.7 NE 9 11 5 6 1017.0 - 0.0
30/06:30am 15.2 14.3 13.8 91 0.8 N 11 13 6 7 1016.9 - 0.0
30/06:00am 14.8 14.6 13.5 92 0.7 N 7 7 4 4 1016.7 1016.8 0.0
30/05:30am 14.7 14.1 13.4 92 0.7 N 9 11 5 6 1016.7 - 0.0
30/05:00am 15.1 14.9 13.7 91 0.8 N 7 9 4 5 1016.6 - 0.0
30/04:30am 15.5 15.4 13.9 90 0.9 N 7 9 4 5 1016.5 - 0.0
30/04:00am 15.4 15.0 14.0 91 0.8 NNW 9 11 5 6 1016.5 - 0.0
30/03:30am 15.6 15.7 14.0 90 0.9 N 6 7 3 4 1016.7 - 0.0
30/03:00am 15.8 15.8 14.2 90 0.9 NW 7 9 4 5 1016.9 1017.0 0.0
30/02:30am 15.6 16.9 14.2 91 0.8 CALM 0 0 0 0 1016.9 - 0.0
30/02:00am 15.8 17.3 14.6 93 0.7 CALM 0 0 0 0 1017.1 - 0.0
30/01:30am 15.9 17.4 14.7 93 0.7 CALM 0 0 0 0 1017.4 - 0.0
30/01:00am 15.9 17.4 14.7 93 0.7 CALM 0 0 0 0 1017.8 - 0.0
30/12:30am 15.8 17.2 14.4 91 0.8 CALM 0 0 0 0 1018.1 - 0.0
30/12:00am 15.9 17.3 14.3 90 0.9 CALM 0 0 0 0 1018.3 1018.4 0.0
 
Date/Time
EDT
Temp
°C
App
Temp
°C
Dew
Point
Rel
Hum
%
Delta-T
°C
Wind Press
QNH
hPa
Press
MSL
hPa
Rain
since 9 am
mm
Dir
 
Spd
km/h
Gust
km/h
Spd
kts
Gust
kts
29/11:30pm 16.2 17.7 14.6 90 0.9 CALM 0 0 0 0 1018.6 - 0.0
29/11:00pm 16.7 18.3 14.8 88 1.1 CALM 0 0 0 0 1018.7 - 0.0
29/10:30pm 16.8 18.4 14.9 88 1.1 CALM 0 0 0 0 1018.6 - 0.0
29/10:00pm 17.4 19.1 15.2 87 1.3 CALM 0 0 0 0 1018.5 - 0.0
29/09:30pm 17.6 19.3 15.2 86 1.4 CALM 0 0 0 0 1018.6 - 0.0
29/09:00pm 18.7 19.3 15.8 83 1.7 W 7 9 4 5 1018.3 1018.4 0.0
29/08:30pm 19.1 21.0 15.7 80 2.0 CALM 0 4 0 2 1018.0 - 0.0
29/08:00pm 19.4 20.1 15.7 79 2.2 SE 6 7 3 4 1017.6 - 0.0
29/07:30pm 20.0 21.5 15.6 76 2.6 SE 2 6 1 3 1017.3 - 0.0
29/07:00pm 20.6 20.9 15.0 70 3.3 SE 7 9 4 5 1017.1 - 0.0
29/06:30pm 21.6 21.3 14.4 63 4.2 SE 9 11 5 6 1016.7 - 0.0
29/06:00pm 22.5 21.3 14.1 59 4.9 SE 13 17 7 9 1016.4 1016.5 0.0
29/05:30pm 23.0 21.6 13.5 55 5.5 SE 13 17 7 9 1016.0 - 0.0
29/05:00pm 23.3 21.8 13.1 52 5.9 SE 13 17 7 9 1015.9 - 0.0
29/04:30pm 23.6 22.3 13.6 53 5.8 SE 13 17 7 9 1015.8 - 0.0
29/04:00pm 24.0 22.4 12.9 50 6.4 SSE 13 17 7 9 1015.9 - 0.0
29/03:30pm 23.9 21.5 11.4 45 7.0 SSE 15 19 8 10 1015.9 - 0.0
29/03:00pm 23.6 21.0 11.9 47 6.6 SSE 17 22 9 12 1016.2 1016.3 0.0
29/02:30pm 24.1 21.3 11.2 44 7.2 SSE 17 24 9 13 1016.3 - 0.0
29/02:00pm 24.0 21.7 13.1 50 6.3 SSE 17 22 9 12 1016.5 - 0.0
29/01:30pm 25.0 22.7 14.6 52 6.2 SSE 20 28 11 15 1016.6 - 0.0
29/01:00pm 24.0 21.6 14.3 54 5.7 SSE 20 28 11 15 1016.9 - 0.0
29/12:30pm 24.7 22.2 13.4 49 6.6 S 19 24 10 13 1017.1 - 0.0
29/12:00pm 23.6 20.7 13.0 51 6.1 S 20 28 11 15 1017.4 1017.5 0.0
29/11:30am 23.8 20.2 10.4 42 7.4 S 20 28 11 15 1017.5 - 0.0
29/11:00am 24.2 20.0 8.2 36 8.5 S 20 30 11 16 1017.6 - 0.0
29/10:30am 23.9 18.1 6.3 32 9.0 S 26 32 14 17 1017.6 - 0.0
29/10:00am 23.6 17.8 4.6 29 9.4 S 24 33 13 18 1017.5 - 0.0
29/09:30am 23.6 18.1 7.5 35 8.4 SSW 26 33 14 18 1017.0 - 0.0
29/09:00am 23.6 17.7 7.3 35 8.5 SSW 28 35 15 19 1016.7 - -
29/08:30am 22.8 19.3 12.2 51 6.0 SSW 22 30 12 16 1016.4 - -
29/08:00am 22.1 20.2 14.2 61 4.6 SSW 17 24 9 13 1016.1 - -
29/07:30am 20.7 19.7 14.5 67 3.6 SW 13 13 7 7 1015.7 - -
29/07:00am 19.1 18.6 15.0 77 2.4 SW 11 15 6 8 1015.4 - -
29/06:30am 17.3 16.3 14.5 83 1.6 SW 13 15 7 8 1015.1 - -
29/06:00am 16.5 15.9 14.6 88 1.1 SW 11 13 6 7 1014.7 1014.8 -
29/05:30am 15.8 14.5 14.8 94 0.6 SW 15 19 8 10 1014.3 - -
29/05:00am 15.2 13.7 14.3 94 0.5 WSW 15 19 8 10 1013.9 - -
29/04:30am 15.4 14.4 14.5 94 0.5 WSW 13 19 7 10 1013.6 - -
29/04:00am 15.4 13.9 14.3 93 0.6 WSW 15 19 8 10 1013.4 - -
29/03:30am 15.0 14.7 14.3 96 0.4 SW 9 13 5 7 1013.1 - -
29/03:00am 14.9 13.7 14.0 94 0.5 SW 13 13 7 7 1012.9 1013.0 -
29/02:30am 14.8 15.2 13.7 93 0.6 SW 4 9 2 5 1012.6 - -
29/02:00am 15.2 15.2 14.1 93 0.6 SSW 7 9 4 5 1012.6 - -
29/01:30am 15.8 16.2 14.8 94 0.6 WNW 6 9 3 5 1012.6 - -
29/01:00am 16.1 15.9 14.7 91 0.8 SSW 9 11 5 6 1012.9 - -
29/12:30am 16.5 16.5 15.3 93 0.7 N 9 15 5 8 1012.9 - -
29/12:00am 16.6 16.6 15.2 91 0.8 N 9 11 5 6 1012.8 1012.9 -
 
Date/Time
EDT
Temp
°C
App
Temp
°C
Dew
Point
Rel
Hum
%
Delta-T
°C
Wind Press
QNH
hPa
Press
MSL
hPa
Rain
since 9 am
mm
Dir
 
Spd
km/h
Gust
km/h
Spd
kts
Gust
kts
28/11:30pm 16.8 17.2 15.4 91 0.8 NNW 7 9 4 5 1012.9 - -
28/11:00pm 17.0 17.9 15.1 88 1.1 N 4 7 2 4 1012.6 - -
28/10:30pm 17.6 19.1 15.7 89 1.1 N 2 7 1 4 1012.5 - -
28/10:00pm 17.7 19.6 15.8 89 1.1 CALM 0 0 0 0 1012.5 - -
28/09:30pm 18.1 19.9 15.4 84 1.6 CALM 0 0 0 0 1012.5 - -
28/09:00pm 19.0 19.8 15.8 82 1.9 N 6 11 3 6 1012.3 1012.4 -
28/08:30pm 19.2 19.8 15.8 81 2.0 N 7 9 4 5 1012.0 - -
28/08:00pm 20.4 21.1 15.7 74 2.8 NNE 6 9 3 5 1011.4 - -

Other Formats:

Comma delimited format used in spreadsheet applications
http://www.bom.gov.au/fwo/IDN60801/IDN60801.94791.axf

JavaScript Object Notation format (JSON) in row-major order
http://www.bom.gov.au/fwo/IDN60801/IDN60801.94791.json